sensor_id;sensor_type;location;lat;lon;timestamp;P1;durP1;ratioP1;P2;durP2;ratioP2
57323;SDS011;43160;51.008;18.248;2022-10-13T00:07:23;18.20;;;7.70;;
57323;SDS011;43160;51.008;18.248;2022-10-13T00:24:23;29.20;;;9.50;;
57323;SDS011;43160;51.008;18.248;2022-10-13T00:34:08;30.30;;;13.40;;
57323;SDS011;43160;51.008;18.248;2022-10-13T00:43:58;22.80;;;12.20;;
57323;SDS011;43160;51.008;18.248;2022-10-13T00:53:46;14.80;;;5.20;;
57323;SDS011;43160;51.008;18.248;2022-10-13T01:03:30;33.00;;;11.60;;
57323;SDS011;43160;51.008;18.248;2022-10-13T01:53:59;21.20;;;9.60;;
57323;SDS011;43160;51.008;18.248;2022-10-13T02:04:05;35.40;;;12.10;;
57323;SDS011;43160;51.008;18.248;2022-10-13T02:14:45;29.00;;;10.20;;
57323;SDS011;43160;51.008;18.248;2022-10-13T02:24:31;22.80;;;10.40;;
57323;SDS011;43160;51.008;18.248;2022-10-13T02:34:14;29.10;;;11.20;;
57323;SDS011;43160;51.008;18.248;2022-10-13T02:43:58;25.90;;;13.00;;
57323;SDS011;43160;51.008;18.248;2022-10-13T02:53:42;14.60;;;4.80;;
57323;SDS011;43160;51.008;18.248;2022-10-13T03:18:12;18.50;;;10.20;;
57323;SDS011;43160;51.008;18.248;2022-10-13T03:27:58;26.20;;;12.50;;
57323;SDS011;43160;51.008;18.248;2022-10-13T03:37:42;25.90;;;12.20;;
57323;SDS011;43160;51.008;18.248;2022-10-13T03:47:26;22.70;;;9.60;;
57323;SDS011;43160;51.008;18.248;2022-10-13T03:57:10;33.00;;;14.00;;
57323;SDS011;43160;51.008;18.248;2022-10-13T04:06:57;37.00;;;13.20;;
57323;SDS011;43160;51.008;18.248;2022-10-13T04:16:41;16.00;;;7.60;;
57323;SDS011;43160;51.008;18.248;2022-10-13T04:26:28;21.80;;;9.50;;
57323;SDS011;43160;51.008;18.248;2022-10-13T04:36:14;14.60;;;6.70;;
57323;SDS011;43160;51.008;18.248;2022-10-13T04:46:08;17.40;;;7.60;;
57323;SDS011;43160;51.008;18.248;2022-10-13T05:03:16;25.40;;;7.40;;
57323;SDS011;43160;51.008;18.248;2022-10-13T05:12:59;26.30;;;9.80;;
57323;SDS011;43160;51.008;18.248;2022-10-13T05:22:43;27.30;;;12.20;;
57323;SDS011;43160;51.008;18.248;2022-10-13T05:32:26;19.80;;;10.20;;
57323;SDS011;43160;51.008;18.248;2022-10-13T05:42:09;10.40;;;4.80;;
57323;SDS011;43160;51.008;18.248;2022-10-13T05:51:57;34.00;;;15.50;;
57323;SDS011;43160;51.008;18.248;2022-10-13T06:01:49;60.30;;;24.20;;
57323;SDS011;43160;51.008;18.248;2022-10-13T06:19:01;30.70;;;15.30;;
57323;SDS011;43160;51.008;18.248;2022-10-13T06:28:45;20.40;;;8.50;;
57323;SDS011;43160;51.008;18.248;2022-10-13T06:38:29;25.90;;;12.70;;
57323;SDS011;43160;51.008;18.248;2022-10-13T06:48:18;39.60;;;14.30;;
57323;SDS011;43160;51.008;18.248;2022-10-13T06:58:01;31.30;;;14.00;;
57323;SDS011;43160;51.008;18.248;2022-10-13T07:07:44;37.10;;;14.20;;
57323;SDS011;43160;51.008;18.248;2022-10-13T07:17:28;30.60;;;15.00;;
57323;SDS011;43160;51.008;18.248;2022-10-13T07:41:45;22.80;;;12.60;;
57323;SDS011;43160;51.008;18.248;2022-10-13T07:51:28;25.70;;;9.30;;
57323;SDS011;43160;51.008;18.248;2022-10-13T08:01:12;28.60;;;13.30;;
57323;SDS011;43160;51.008;18.248;2022-10-13T08:11:06;25.90;;;14.40;;
57323;SDS011;43160;51.008;18.248;2022-10-13T08:20:51;33.20;;;13.70;;
57323;SDS011;43160;51.008;18.248;2022-10-13T08:30:48;21.70;;;11.30;;
57323;SDS011;43160;51.008;18.248;2022-10-13T08:40:36;28.20;;;13.90;;
57323;SDS011;43160;51.008;18.248;2022-10-13T08:50:48;15.90;;;8.80;;
57323;SDS011;43160;51.008;18.248;2022-10-13T09:01:12;38.60;;;12.60;;
57323;SDS011;43160;51.008;18.248;2022-10-13T09:18:34;25.90;;;10.10;;
57323;SDS011;43160;51.008;18.248;2022-10-13T09:28:50;24.00;;;11.40;;
57323;SDS011;43160;51.008;18.248;2022-10-13T09:39:12;19.10;;;10.50;;
57323;SDS011;43160;51.008;18.248;2022-10-13T09:49:04;25.40;;;11.50;;
57323;SDS011;43160;51.008;18.248;2022-10-13T10:09:27;15.10;;;7.20;;
57323;SDS011;43160;51.008;18.248;2022-10-13T10:29:52;16.70;;;8.40;;
57323;SDS011;43160;51.008;18.248;2022-10-13T10:40:48;17.60;;;8.80;;
57323;SDS011;43160;51.008;18.248;2022-10-13T10:53:54;11.90;;;5.80;;
57323;SDS011;43160;51.008;18.248;2022-10-13T11:35:52;14.80;;;8.20;;
57323;SDS011;43160;51.008;18.248;2022-10-13T11:46:30;12.30;;;6.50;;
57323;SDS011;43160;51.008;18.248;2022-10-13T11:57:24;15.10;;;6.80;;
57323;SDS011;43160;51.008;18.248;2022-10-13T12:07:35;17.70;;;6.70;;
57323;SDS011;43160;51.008;18.248;2022-10-13T12:27:20;14.40;;;6.90;;
57323;SDS011;43160;51.008;18.248;2022-10-13T12:37:13;13.70;;;6.70;;
57323;SDS011;43160;51.008;18.248;2022-10-13T12:47:01;15.30;;;7.20;;
57323;SDS011;43160;51.008;18.248;2022-10-13T12:56:57;14.40;;;6.30;;
57323;SDS011;43160;51.008;18.248;2022-10-13T13:32:17;15.50;;;7.50;;
57323;SDS011;43160;51.008;18.248;2022-10-13T13:42:22;11.10;;;5.40;;
57323;SDS011;43160;51.008;18.248;2022-10-13T13:52:18;11.50;;;4.50;;
57323;SDS011;43160;51.008;18.248;2022-10-13T14:02:02;12.90;;;4.00;;
57323;SDS011;43160;51.008;18.248;2022-10-13T14:11:49;12.80;;;4.70;;
57323;SDS011;43160;51.008;18.248;2022-10-13T14:21:35;14.30;;;4.90;;
57323;SDS011;43160;51.008;18.248;2022-10-13T14:31:19;13.50;;;4.90;;
57323;SDS011;43160;51.008;18.248;2022-10-13T14:41:03;10.20;;;4.00;;
57323;SDS011;43160;51.008;18.248;2022-10-13T14:50:50;8.30;;;2.90;;
57323;SDS011;43160;51.008;18.248;2022-10-13T15:00:34;9.70;;;3.20;;
57323;SDS011;43160;51.008;18.248;2022-10-13T15:10:17;12.50;;;4.40;;
57323;SDS011;43160;51.008;18.248;2022-10-13T15:20:01;13.00;;;5.70;;
57323;SDS011;43160;51.008;18.248;2022-10-13T15:29:46;17.40;;;6.60;;
57323;SDS011;43160;51.008;18.248;2022-10-13T15:34:42;29.20;;;15.10;;
57323;SDS011;43160;51.008;18.248;2022-10-13T15:44:26;21.00;;;9.40;;
57323;SDS011;43160;51.008;18.248;2022-10-13T15:54:13;35.90;;;15.60;;
57323;SDS011;43160;51.008;18.248;2022-10-13T16:03:57;24.50;;;10.30;;
57323;SDS011;43160;51.008;18.248;2022-10-13T16:13:49;23.10;;;10.20;;
57323;SDS011;43160;51.008;18.248;2022-10-13T16:23:34;15.00;;;7.10;;
57323;SDS011;43160;51.008;18.248;2022-10-13T16:33:19;14.40;;;7.80;;
57323;SDS011;43160;51.008;18.248;2022-10-13T16:43:06;27.10;;;12.80;;
57323;SDS011;43160;51.008;18.248;2022-10-13T16:52:48;27.30;;;13.60;;
57323;SDS011;43160;51.008;18.248;2022-10-13T17:02:34;56.70;;;19.90;;
57323;SDS011;43160;51.008;18.248;2022-10-13T17:12:17;20.30;;;8.90;;
57323;SDS011;43160;51.008;18.248;2022-10-13T17:22:00;37.40;;;14.80;;
57323;SDS011;43160;51.008;18.248;2022-10-13T17:31:45;33.50;;;14.30;;
57323;SDS011;43160;51.008;18.248;2022-10-13T17:41:30;23.10;;;10.60;;
57323;SDS011;43160;51.008;18.248;2022-10-13T17:51:15;38.20;;;18.90;;
57323;SDS011;43160;51.008;18.248;2022-10-13T18:01:07;27.80;;;13.50;;
57323;SDS011;43160;51.008;18.248;2022-10-13T18:10:53;18.80;;;7.80;;
57323;SDS011;43160;51.008;18.248;2022-10-13T18:20:37;35.90;;;18.30;;
57323;SDS011;43160;51.008;18.248;2022-10-13T18:30:24;24.50;;;10.60;;
57323;SDS011;43160;51.008;18.248;2022-10-13T18:40:07;41.30;;;17.60;;
57323;SDS011;43160;51.008;18.248;2022-10-13T18:49:50;34.00;;;14.90;;
57323;SDS011;43160;51.008;18.248;2022-10-13T18:59:35;36.90;;;13.00;;
57323;SDS011;43160;51.008;18.248;2022-10-13T19:09:20;36.50;;;15.40;;
57323;SDS011;43160;51.008;18.248;2022-10-13T19:19:04;41.60;;;13.60;;
57323;SDS011;43160;51.008;18.248;2022-10-13T19:28:54;35.90;;;14.40;;
57323;SDS011;43160;51.008;18.248;2022-10-13T19:38:45;40.60;;;16.90;;
57323;SDS011;43160;51.008;18.248;2022-10-13T19:48:30;32.40;;;13.10;;
57323;SDS011;43160;51.008;18.248;2022-10-13T19:58:13;46.60;;;19.40;;
57323;SDS011;43160;51.008;18.248;2022-10-13T20:08:05;46.80;;;20.90;;
57323;SDS011;43160;51.008;18.248;2022-10-13T20:17:50;48.80;;;20.40;;
57323;SDS011;43160;51.008;18.248;2022-10-13T20:27:34;30.60;;;14.00;;
57323;SDS011;43160;51.008;18.248;2022-10-13T20:37:17;41.60;;;19.60;;
57323;SDS011;43160;51.008;18.248;2022-10-13T20:47:00;37.30;;;16.80;;
57323;SDS011;43160;51.008;18.248;2022-10-13T20:56:43;35.30;;;15.90;;
57323;SDS011;43160;51.008;18.248;2022-10-13T21:06:27;43.30;;;19.10;;
57323;SDS011;43160;51.008;18.248;2022-10-13T21:16:18;40.10;;;20.10;;
57323;SDS011;43160;51.008;18.248;2022-10-13T21:26:06;34.20;;;15.20;;
57323;SDS011;43160;51.008;18.248;2022-10-13T21:35:56;49.00;;;22.60;;
57323;SDS011;43160;51.008;18.248;2022-10-13T21:52:56;35.40;;;16.70;;
57323;SDS011;43160;51.008;18.248;2022-10-13T22:09:57;56.10;;;20.20;;
57323;SDS011;43160;51.008;18.248;2022-10-13T22:19:40;43.50;;;16.90;;
57323;SDS011;43160;51.008;18.248;2022-10-13T22:29:23;40.60;;;18.50;;
57323;SDS011;43160;51.008;18.248;2022-10-13T22:39:07;39.00;;;16.50;;
57323;SDS011;43160;51.008;18.248;2022-10-13T22:48:53;43.90;;;17.50;;
57323;SDS011;43160;51.008;18.248;2022-10-13T22:58:40;33.20;;;14.20;;
57323;SDS011;43160;51.008;18.248;2022-10-13T23:08:28;19.20;;;6.60;;
57323;SDS011;43160;51.008;18.248;2022-10-13T23:18:13;44.50;;;16.30;;
57323;SDS011;43160;51.008;18.248;2022-10-13T23:28:00;19.80;;;8.50;;
57323;SDS011;43160;51.008;18.248;2022-10-13T23:37:44;45.50;;;19.50;;
57323;SDS011;43160;51.008;18.248;2022-10-13T23:47:28;50.50;;;20.70;;
57323;SDS011;43160;51.008;18.248;2022-10-13T23:57:12;45.90;;;18.10;;
